sensor_id;sensor_type;location;lat;lon;timestamp;pressure;altitude;pressure_sealevel;temperature;humidity
56582;BME280;42463;52.214;21.238;2023-04-25T00:00:57;99049.70;;;15.05;52.97
56582;BME280;42463;52.214;21.238;2023-04-25T00:02:59;99051.24;;;15.04;53.19
56582;BME280;42463;52.214;21.238;2023-04-25T00:05:02;99049.00;;;15.05;53.22
56582;BME280;42463;52.214;21.238;2023-04-25T00:07:06;99047.61;;;15.03;53.29
56582;BME280;42463;52.214;21.238;2023-04-25T00:09:09;99048.83;;;15.01;53.41
56582;BME280;42463;52.214;21.238;2023-04-25T00:11:13;99049.83;;;15.00;53.60
56582;BME280;42463;52.214;21.238;2023-04-25T00:13:16;99051.78;;;14.99;53.64
56582;BME280;42463;52.214;21.238;2023-04-25T00:15:20;99052.23;;;14.97;53.68
56582;BME280;42463;52.214;21.238;2023-04-25T00:17:22;99053.44;;;14.94;53.93
56582;BME280;42463;52.214;21.238;2023-04-25T00:19:27;99050.22;;;14.92;54.17
56582;BME280;42463;52.214;21.238;2023-04-25T00:21:30;99054.64;;;14.89;54.24
56582;BME280;42463;52.214;21.238;2023-04-25T00:23:34;99057.67;;;14.85;54.30
56582;BME280;42463;52.214;21.238;2023-04-25T00:25:38;99058.44;;;14.83;54.51
56582;BME280;42463;52.214;21.238;2023-04-25T00:27:41;99063.86;;;14.81;54.64
56582;BME280;42463;52.214;21.238;2023-04-25T00:29:44;99067.22;;;14.78;54.79
56582;BME280;42463;52.214;21.238;2023-04-25T00:31:47;99066.28;;;14.76;55.09
56582;BME280;42463;52.214;21.238;2023-04-25T00:33:50;99065.18;;;14.75;54.90
56582;BME280;42463;52.214;21.238;2023-04-25T00:35:53;99066.63;;;14.74;55.23
56582;BME280;42463;52.214;21.238;2023-04-25T00:37:56;99061.80;;;14.73;55.41
56582;BME280;42463;52.214;21.238;2023-04-25T00:39:59;99062.46;;;14.70;55.30
56582;BME280;42463;52.214;21.238;2023-04-25T00:42:03;99059.91;;;14.66;55.45
56582;BME280;42463;52.214;21.238;2023-04-25T00:44:06;99054.63;;;14.61;55.48
56582;BME280;42463;52.214;21.238;2023-04-25T00:46:10;99054.30;;;14.61;55.48
56582;BME280;42463;52.214;21.238;2023-04-25T00:48:14;99059.95;;;14.60;55.56
56582;BME280;42463;52.214;21.238;2023-04-25T00:50:17;99059.65;;;14.59;55.64
56582;BME280;42463;52.214;21.238;2023-04-25T00:52:20;99056.65;;;14.57;55.54
56582;BME280;42463;52.214;21.238;2023-04-25T00:54:23;99053.82;;;14.55;55.60
56582;BME280;42463;52.214;21.238;2023-04-25T00:56:27;99050.18;;;14.53;55.65
56582;BME280;42463;52.214;21.238;2023-04-25T00:58:29;99048.80;;;14.52;55.69
56582;BME280;42463;52.214;21.238;2023-04-25T01:03:42;99054.26;;;14.52;55.77
56582;BME280;42463;52.214;21.238;2023-04-25T01:05:47;99051.03;;;14.50;55.76
56582;BME280;42463;52.214;21.238;2023-04-25T01:07:52;99054.70;;;14.47;55.76
56582;BME280;42463;52.214;21.238;2023-04-25T01:09:54;99055.23;;;14.43;55.93
56582;BME280;42463;52.214;21.238;2023-04-25T01:11:57;99057.91;;;14.40;56.03
56582;BME280;42463;52.214;21.238;2023-04-25T01:14:00;99057.13;;;14.36;56.01
56582;BME280;42463;52.214;21.238;2023-04-25T01:16:05;99060.11;;;14.35;56.05
56582;BME280;42463;52.214;21.238;2023-04-25T01:18:08;99056.23;;;14.33;56.03
56582;BME280;42463;52.214;21.238;2023-04-25T01:20:12;99055.64;;;14.30;56.19
56582;BME280;42463;52.214;21.238;2023-04-25T01:22:16;99055.63;;;14.27;56.34
56582;BME280;42463;52.214;21.238;2023-04-25T01:24:19;99057.85;;;14.23;56.27
56582;BME280;42463;52.214;21.238;2023-04-25T01:26:21;99057.80;;;14.21;56.38
56582;BME280;42463;52.214;21.238;2023-04-25T01:28:25;99058.12;;;14.19;56.66
56582;BME280;42463;52.214;21.238;2023-04-25T01:30:28;99053.84;;;14.18;56.64
56582;BME280;42463;52.214;21.238;2023-04-25T01:32:31;99054.77;;;14.16;56.74
56582;BME280;42463;52.214;21.238;2023-04-25T01:34:40;99048.05;;;14.16;57.02
56582;BME280;42463;52.214;21.238;2023-04-25T01:36:43;99046.30;;;14.14;56.99
56582;BME280;42463;52.214;21.238;2023-04-25T01:38:46;99047.51;;;14.12;57.15
56582;BME280;42463;52.214;21.238;2023-04-25T01:40:51;99043.50;;;14.11;57.08
56582;BME280;42463;52.214;21.238;2023-04-25T01:42:55;99044.61;;;14.10;57.18
56582;BME280;42463;52.214;21.238;2023-04-25T01:44:58;99044.40;;;14.07;57.08
56582;BME280;42463;52.214;21.238;2023-04-25T01:47:01;99042.95;;;14.06;57.29
56582;BME280;42463;52.214;21.238;2023-04-25T01:49:04;99038.97;;;14.06;57.37
56582;BME280;42463;52.214;21.238;2023-04-25T01:51:08;99039.64;;;14.05;57.26
56582;BME280;42463;52.214;21.238;2023-04-25T01:53:13;99037.41;;;14.03;57.39
56582;BME280;42463;52.214;21.238;2023-04-25T01:55:17;99038.45;;;14.01;57.14
56582;BME280;42463;52.214;21.238;2023-04-25T01:57:29;99042.77;;;13.98;57.48
56582;BME280;42463;52.214;21.238;2023-04-25T01:59:32;99036.01;;;13.96;57.47
56582;BME280;42463;52.214;21.238;2023-04-25T02:02:01;99038.46;;;13.94;57.71
56582;BME280;42463;52.214;21.238;2023-04-25T02:04:06;99033.84;;;13.91;57.49
56582;BME280;42463;52.214;21.238;2023-04-25T02:06:12;99028.55;;;13.89;57.39
56582;BME280;42463;52.214;21.238;2023-04-25T02:08:18;99027.03;;;13.86;57.48
56582;BME280;42463;52.214;21.238;2023-04-25T02:10:21;99023.44;;;13.82;57.67
56582;BME280;42463;52.214;21.238;2023-04-25T02:12:40;99026.27;;;13.79;57.80
56582;BME280;42463;52.214;21.238;2023-04-25T02:15:11;99029.76;;;13.78;57.92
56582;BME280;42463;52.214;21.238;2023-04-25T02:17:18;99028.58;;;13.74;58.33
56582;BME280;42463;52.214;21.238;2023-04-25T02:19:21;99028.36;;;13.71;58.53
56582;BME280;42463;52.214;21.238;2023-04-25T02:21:24;99028.23;;;13.70;58.68
56582;BME280;42463;52.214;21.238;2023-04-25T02:23:29;99031.34;;;13.70;59.36
56582;BME280;42463;52.214;21.238;2023-04-25T02:25:32;99028.20;;;13.71;59.85
56582;BME280;42463;52.214;21.238;2023-04-25T02:27:35;99030.90;;;13.73;60.07
56582;BME280;42463;52.214;21.238;2023-04-25T02:29:38;99030.62;;;13.73;60.11
56582;BME280;42463;52.214;21.238;2023-04-25T02:31:41;99024.70;;;13.74;60.16
56582;BME280;42463;52.214;21.238;2023-04-25T02:33:44;99025.38;;;13.76;60.04
56582;BME280;42463;52.214;21.238;2023-04-25T02:35:48;99024.41;;;13.75;59.77
56582;BME280;42463;52.214;21.238;2023-04-25T02:37:51;99020.79;;;13.74;59.78
56582;BME280;42463;52.214;21.238;2023-04-25T02:39:53;99024.34;;;13.73;59.85
56582;BME280;42463;52.214;21.238;2023-04-25T02:41:57;99029.41;;;13.71;59.85
56582;BME280;42463;52.214;21.238;2023-04-25T02:44:00;99035.54;;;13.68;59.88
56582;BME280;42463;52.214;21.238;2023-04-25T02:46:03;99036.69;;;13.65;59.99
56582;BME280;42463;52.214;21.238;2023-04-25T02:48:06;99038.19;;;13.64;59.97
56582;BME280;42463;52.214;21.238;2023-04-25T02:50:09;99043.52;;;13.62;59.92
56582;BME280;42463;52.214;21.238;2023-04-25T02:52:13;99040.17;;;13.61;59.94
56582;BME280;42463;52.214;21.238;2023-04-25T02:54:16;99038.46;;;13.59;59.99
56582;BME280;42463;52.214;21.238;2023-04-25T02:56:21;99036.52;;;13.59;59.90
56582;BME280;42463;52.214;21.238;2023-04-25T02:58:24;99035.03;;;13.59;60.05
56582;BME280;42463;52.214;21.238;2023-04-25T03:00:29;99036.02;;;13.59;60.24
56582;BME280;42463;52.214;21.238;2023-04-25T03:02:32;99035.63;;;13.59;60.40
56582;BME280;42463;52.214;21.238;2023-04-25T03:04:35;99036.47;;;13.59;60.20
56582;BME280;42463;52.214;21.238;2023-04-25T03:06:38;99033.76;;;13.58;60.39
56582;BME280;42463;52.214;21.238;2023-04-25T03:08:41;99031.92;;;13.57;60.65
56582;BME280;42463;52.214;21.238;2023-04-25T03:10:44;99031.63;;;13.56;60.55
56582;BME280;42463;52.214;21.238;2023-04-25T03:12:47;99031.37;;;13.55;60.48
56582;BME280;42463;52.214;21.238;2023-04-25T03:14:50;99029.06;;;13.56;60.46
56582;BME280;42463;52.214;21.238;2023-04-25T03:16:53;99031.94;;;13.57;60.66
56582;BME280;42463;52.214;21.238;2023-04-25T03:18:56;99036.84;;;13.57;60.50
56582;BME280;42463;52.214;21.238;2023-04-25T03:20:59;99036.09;;;13.56;60.71
56582;BME280;42463;52.214;21.238;2023-04-25T03:23:02;99035.24;;;13.55;60.98
56582;BME280;42463;52.214;21.238;2023-04-25T03:25:07;99035.34;;;13.55;60.85
56582;BME280;42463;52.214;21.238;2023-04-25T03:27:10;99034.90;;;13.56;61.07
56582;BME280;42463;52.214;21.238;2023-04-25T03:29:13;99032.77;;;13.58;61.02
56582;BME280;42463;52.214;21.238;2023-04-25T03:31:16;99027.36;;;13.59;60.87
56582;BME280;42463;52.214;21.238;2023-04-25T03:33:19;99029.32;;;13.59;60.90
56582;BME280;42463;52.214;21.238;2023-04-25T03:35:21;99031.38;;;13.59;60.90
56582;BME280;42463;52.214;21.238;2023-04-25T03:37:26;99032.18;;;13.60;60.87
56582;BME280;42463;52.214;21.238;2023-04-25T03:39:31;99034.31;;;13.62;60.68
56582;BME280;42463;52.214;21.238;2023-04-25T03:41:34;99036.35;;;13.63;60.72
56582;BME280;42463;52.214;21.238;2023-04-25T03:43:40;99039.65;;;13.64;60.79
56582;BME280;42463;52.214;21.238;2023-04-25T03:45:46;99043.46;;;13.62;60.63
56582;BME280;42463;52.214;21.238;2023-04-25T03:47:49;99045.66;;;13.61;60.70
56582;BME280;42463;52.214;21.238;2023-04-25T03:49:53;99048.52;;;13.61;61.03
56582;BME280;42463;52.214;21.238;2023-04-25T03:51:58;99046.04;;;13.61;60.95
56582;BME280;42463;52.214;21.238;2023-04-25T03:54:01;99050.89;;;13.62;61.24
56582;BME280;42463;52.214;21.238;2023-04-25T03:56:07;99055.36;;;13.64;61.50
56582;BME280;42463;52.214;21.238;2023-04-25T03:58:12;99050.53;;;13.65;61.63
56582;BME280;42463;52.214;21.238;2023-04-25T04:00:16;99054.98;;;13.66;61.64
56582;BME280;42463;52.214;21.238;2023-04-25T04:02:18;99054.04;;;13.67;62.02
56582;BME280;42463;52.214;21.238;2023-04-25T04:04:22;99056.39;;;13.69;62.16
56582;BME280;42463;52.214;21.238;2023-04-25T04:06:25;99058.53;;;13.70;62.19
56582;BME280;42463;52.214;21.238;2023-04-25T04:08:34;99060.20;;;13.73;62.32
56582;BME280;42463;52.214;21.238;2023-04-25T04:10:37;99061.08;;;13.76;62.30
56582;BME280;42463;52.214;21.238;2023-04-25T04:12:40;99053.84;;;13.78;62.29
56582;BME280;42463;52.214;21.238;2023-04-25T04:14:43;99059.34;;;13.80;62.46
56582;BME280;42463;52.214;21.238;2023-04-25T04:16:46;99053.92;;;13.84;62.43
56582;BME280;42463;52.214;21.238;2023-04-25T04:18:49;99055.92;;;13.86;62.73
56582;BME280;42463;52.214;21.238;2023-04-25T04:20:53;99059.85;;;13.88;62.95
56582;BME280;42463;52.214;21.238;2023-04-25T04:22:56;99065.20;;;13.92;63.18
56582;BME280;42463;52.214;21.238;2023-04-25T04:24:59;99065.71;;;13.95;63.19
56582;BME280;42463;52.214;21.238;2023-04-25T04:27:22;99071.75;;;13.97;63.34
56582;BME280;42463;52.214;21.238;2023-04-25T04:29:44;99075.52;;;13.99;63.69
56582;BME280;42463;52.214;21.238;2023-04-25T04:31:51;99074.48;;;14.00;63.76
56582;BME280;42463;52.214;21.238;2023-04-25T04:33:53;99073.42;;;14.00;63.85
56582;BME280;42463;52.214;21.238;2023-04-25T04:35:56;99075.65;;;14.03;64.14
56582;BME280;42463;52.214;21.238;2023-04-25T04:37:59;99077.36;;;14.04;64.11
56582;BME280;42463;52.214;21.238;2023-04-25T04:40:09;99078.49;;;14.05;64.05
56582;BME280;42463;52.214;21.238;2023-04-25T04:42:19;99078.41;;;14.03;64.29
56582;BME280;42463;52.214;21.238;2023-04-25T04:44:37;99082.94;;;14.08;64.52
56582;BME280;42463;52.214;21.238;2023-04-25T04:46:48;99077.83;;;14.12;64.43
56582;BME280;42463;52.214;21.238;2023-04-25T04:49:12;99082.17;;;14.15;64.45
56582;BME280;42463;52.214;21.238;2023-04-25T04:51:34;99078.48;;;14.14;64.09
56582;BME280;42463;52.214;21.238;2023-04-25T04:53:49;99079.10;;;14.15;64.07
56582;BME280;42463;52.214;21.238;2023-04-25T04:56:15;99084.34;;;14.20;63.99
56582;BME280;42463;52.214;21.238;2023-04-25T04:58:31;99084.08;;;14.20;63.85
56582;BME280;42463;52.214;21.238;2023-04-25T05:00:56;99088.13;;;14.21;63.86
56582;BME280;42463;52.214;21.238;2023-04-25T05:03:08;99090.04;;;14.23;64.10
56582;BME280;42463;52.214;21.238;2023-04-25T05:05:42;99086.14;;;14.26;64.07
56582;BME280;42463;52.214;21.238;2023-04-25T05:08:01;99084.11;;;14.25;63.92
56582;BME280;42463;52.214;21.238;2023-04-25T05:10:17;99080.01;;;14.25;63.78
56582;BME280;42463;52.214;21.238;2023-04-25T05:12:38;99078.52;;;14.28;64.00
56582;BME280;42463;52.214;21.238;2023-04-25T05:14:53;99077.31;;;14.32;63.94
56582;BME280;42463;52.214;21.238;2023-04-25T05:17:14;99074.30;;;14.37;63.80
56582;BME280;42463;52.214;21.238;2023-04-25T05:19:35;99072.33;;;14.42;63.73
56582;BME280;42463;52.214;21.238;2023-04-25T05:21:51;99073.61;;;14.46;63.59
56582;BME280;42463;52.214;21.238;2023-04-25T05:24:20;99075.57;;;14.46;63.37
56582;BME280;42463;52.214;21.238;2023-04-25T05:26:47;99079.91;;;14.47;63.19
56582;BME280;42463;52.214;21.238;2023-04-25T05:29:02;99079.92;;;14.49;63.31
56582;BME280;42463;52.214;21.238;2023-04-25T05:31:36;99083.54;;;14.52;63.18
56582;BME280;42463;52.214;21.238;2023-04-25T05:33:45;99079.18;;;14.54;63.13
56582;BME280;42463;52.214;21.238;2023-04-25T05:35:47;99087.60;;;14.56;63.10
56582;BME280;42463;52.214;21.238;2023-04-25T05:37:51;99083.98;;;14.58;63.08
56582;BME280;42463;52.214;21.238;2023-04-25T05:40:07;99085.02;;;14.58;62.87
56582;BME280;42463;52.214;21.238;2023-04-25T05:42:28;99084.88;;;14.58;62.70
56582;BME280;42463;52.214;21.238;2023-04-25T05:44:44;99086.31;;;14.60;62.75
56582;BME280;42463;52.214;21.238;2023-04-25T05:47:16;99086.31;;;14.60;62.69
56582;BME280;42463;52.214;21.238;2023-04-25T05:49:42;99090.36;;;14.62;62.47
56582;BME280;42463;52.214;21.238;2023-04-25T05:52:00;99088.91;;;14.61;62.50
56582;BME280;42463;52.214;21.238;2023-04-25T05:54:32;99088.83;;;14.60;62.47
56582;BME280;42463;52.214;21.238;2023-04-25T05:56:35;99089.20;;;14.60;62.26
56582;BME280;42463;52.214;21.238;2023-04-25T05:58:38;99089.27;;;14.62;62.38
56582;BME280;42463;52.214;21.238;2023-04-25T06:00:41;99086.84;;;14.63;62.34
56582;BME280;42463;52.214;21.238;2023-04-25T06:02:44;99084.33;;;14.63;62.44
56582;BME280;42463;52.214;21.238;2023-04-25T06:04:50;99082.96;;;14.61;62.30
56582;BME280;42463;52.214;21.238;2023-04-25T06:06:53;99086.83;;;14.59;62.30
56582;BME280;42463;52.214;21.238;2023-04-25T06:08:55;99087.10;;;14.59;62.37
56582;BME280;42463;52.214;21.238;2023-04-25T06:10:58;99086.25;;;14.61;62.48
56582;BME280;42463;52.214;21.238;2023-04-25T06:13:01;99091.52;;;14.63;62.50
56582;BME280;42463;52.214;21.238;2023-04-25T06:15:07;99090.41;;;14.64;62.36
56582;BME280;42463;52.214;21.238;2023-04-25T06:17:10;99090.44;;;14.63;62.37
56582;BME280;42463;52.214;21.238;2023-04-25T06:19:13;99092.85;;;14.65;62.41
56582;BME280;42463;52.214;21.238;2023-04-25T06:21:16;99095.89;;;14.68;62.24
56582;BME280;42463;52.214;21.238;2023-04-25T06:23:18;99098.15;;;14.71;62.45
56582;BME280;42463;52.214;21.238;2023-04-25T06:25:28;99102.02;;;14.75;62.30
56582;BME280;42463;52.214;21.238;2023-04-25T06:27:31;99102.09;;;14.75;62.39
56582;BME280;42463;52.214;21.238;2023-04-25T06:29:33;99103.31;;;14.72;62.06
56582;BME280;42463;52.214;21.238;2023-04-25T06:31:36;99104.38;;;14.71;62.11
56582;BME280;42463;52.214;21.238;2023-04-25T06:33:39;99109.15;;;14.70;62.40
56582;BME280;42463;52.214;21.238;2023-04-25T06:35:44;99118.00;;;14.65;62.03
56582;BME280;42463;52.214;21.238;2023-04-25T06:37:48;99128.77;;;14.61;62.00
56582;BME280;42463;52.214;21.238;2023-04-25T06:39:54;99135.58;;;14.56;62.10
56582;BME280;42463;52.214;21.238;2023-04-25T06:41:57;99139.55;;;14.50;62.33
56582;BME280;42463;52.214;21.238;2023-04-25T06:44:16;99139.83;;;14.42;62.40
56582;BME280;42463;52.214;21.238;2023-04-25T06:46:28;99136.66;;;14.35;62.55
56582;BME280;42463;52.214;21.238;2023-04-25T06:48:31;99130.80;;;14.32;62.76
56582;BME280;42463;52.214;21.238;2023-04-25T06:50:34;99125.67;;;14.31;63.23
56582;BME280;42463;52.214;21.238;2023-04-25T06:52:37;99122.80;;;14.28;63.41
56582;BME280;42463;52.214;21.238;2023-04-25T06:54:40;99123.77;;;14.27;63.79
56582;BME280;42463;52.214;21.238;2023-04-25T06:57:12;99125.97;;;14.26;64.01
56582;BME280;42463;52.214;21.238;2023-04-25T06:59:15;99126.72;;;14.24;64.04
56582;BME280;42463;52.214;21.238;2023-04-25T07:01:21;99131.19;;;14.25;64.34
56582;BME280;42463;52.214;21.238;2023-04-25T07:03:24;99134.28;;;14.26;64.52
56582;BME280;42463;52.214;21.238;2023-04-25T07:05:29;99135.90;;;14.24;64.28
56582;BME280;42463;52.214;21.238;2023-04-25T07:07:31;99138.85;;;14.19;64.30
56582;BME280;42463;52.214;21.238;2023-04-25T07:09:35;99135.17;;;14.18;64.36
56582;BME280;42463;52.214;21.238;2023-04-25T07:11:38;99137.10;;;14.17;64.35
56582;BME280;42463;52.214;21.238;2023-04-25T07:13:41;99134.73;;;14.18;64.63
56582;BME280;42463;52.214;21.238;2023-04-25T07:15:44;99132.02;;;14.20;64.79
56582;BME280;42463;52.214;21.238;2023-04-25T07:17:47;99129.65;;;14.21;64.72
56582;BME280;42463;52.214;21.238;2023-04-25T07:19:50;99128.48;;;14.22;64.64
56582;BME280;42463;52.214;21.238;2023-04-25T07:21:53;99126.23;;;14.22;64.64
56582;BME280;42463;52.214;21.238;2023-04-25T07:23:57;99132.38;;;14.25;64.74
56582;BME280;42463;52.214;21.238;2023-04-25T07:26:04;99126.70;;;14.28;64.76
56582;BME280;42463;52.214;21.238;2023-04-25T07:28:07;99132.20;;;14.32;65.04
56582;BME280;42463;52.214;21.238;2023-04-25T07:30:13;99131.45;;;14.34;64.78
56582;BME280;42463;52.214;21.238;2023-04-25T07:32:16;99133.88;;;14.37;64.81
56582;BME280;42463;52.214;21.238;2023-04-25T07:34:19;99133.39;;;14.40;64.63
56582;BME280;42463;52.214;21.238;2023-04-25T07:36:21;99130.30;;;14.41;64.34
56582;BME280;42463;52.214;21.238;2023-04-25T07:38:25;99133.58;;;14.41;64.23
56582;BME280;42463;52.214;21.238;2023-04-25T07:40:28;99136.80;;;14.38;64.00
56582;BME280;42463;52.214;21.238;2023-04-25T07:42:35;99137.34;;;14.36;63.67
56582;BME280;42463;52.214;21.238;2023-04-25T07:44:39;99141.59;;;14.34;63.51
56582;BME280;42463;52.214;21.238;2023-04-25T07:46:43;99147.00;;;14.32;63.50
56582;BME280;42463;52.214;21.238;2023-04-25T07:48:45;99149.37;;;14.31;63.56
56582;BME280;42463;52.214;21.238;2023-04-25T07:50:48;99149.14;;;14.31;63.58
56582;BME280;42463;52.214;21.238;2023-04-25T07:52:51;99147.44;;;14.30;63.54
56582;BME280;42463;52.214;21.238;2023-04-25T07:54:59;99148.59;;;14.31;63.67
56582;BME280;42463;52.214;21.238;2023-04-25T07:57:08;99153.33;;;14.32;63.72
56582;BME280;42463;52.214;21.238;2023-04-25T07:59:13;99151.52;;;14.35;63.59
56582;BME280;42463;52.214;21.238;2023-04-25T08:01:17;99153.93;;;14.36;63.41
56582;BME280;42463;52.214;21.238;2023-04-25T08:03:41;99151.90;;;14.39;63.24
56582;BME280;42463;52.214;21.238;2023-04-25T08:05:50;99153.55;;;14.41;63.19
56582;BME280;42463;52.214;21.238;2023-04-25T08:07:54;99158.52;;;14.41;63.16
56582;BME280;42463;52.214;21.238;2023-04-25T08:09:57;99159.99;;;14.41;63.15
56582;BME280;42463;52.214;21.238;2023-04-25T08:12:05;99156.87;;;14.42;63.20
56582;BME280;42463;52.214;21.238;2023-04-25T08:14:08;99163.17;;;14.40;62.93
56582;BME280;42463;52.214;21.238;2023-04-25T08:16:11;99167.70;;;14.40;63.07
56582;BME280;42463;52.214;21.238;2023-04-25T08:18:14;99169.24;;;14.43;63.29
56582;BME280;42463;52.214;21.238;2023-04-25T08:20:17;99169.66;;;14.46;62.90
56582;BME280;42463;52.214;21.238;2023-04-25T08:22:20;99168.65;;;14.47;62.58
56582;BME280;42463;52.214;21.238;2023-04-25T08:24:28;99166.91;;;14.47;62.11
56582;BME280;42463;52.214;21.238;2023-04-25T08:26:32;99160.46;;;14.47;61.93
56582;BME280;42463;52.214;21.238;2023-04-25T08:28:35;99162.62;;;14.48;61.87
56582;BME280;42463;52.214;21.238;2023-04-25T08:30:38;99161.03;;;14.51;61.61
56582;BME280;42463;52.214;21.238;2023-04-25T08:32:41;99164.09;;;14.53;61.02
56582;BME280;42463;52.214;21.238;2023-04-25T08:35:09;99163.98;;;14.55;60.94
56582;BME280;42463;52.214;21.238;2023-04-25T08:37:12;99168.59;;;14.58;61.02
56582;BME280;42463;52.214;21.238;2023-04-25T08:39:30;99169.02;;;14.60;60.89
56582;BME280;42463;52.214;21.238;2023-04-25T08:41:55;99167.90;;;14.61;60.25
56582;BME280;42463;52.214;21.238;2023-04-25T08:43:58;99170.48;;;14.58;59.78
56582;BME280;42463;52.214;21.238;2023-04-25T08:46:03;99171.58;;;14.58;59.72
56582;BME280;42463;52.214;21.238;2023-04-25T08:48:13;99177.48;;;14.58;59.63
56582;BME280;42463;52.214;21.238;2023-04-25T08:50:17;99177.17;;;14.57;59.80
56582;BME280;42463;52.214;21.238;2023-04-25T08:52:23;99178.67;;;14.58;59.47
56582;BME280;42463;52.214;21.238;2023-04-25T08:54:28;99183.27;;;14.59;59.40
56582;BME280;42463;52.214;21.238;2023-04-25T08:56:33;99184.00;;;14.59;59.22
56582;BME280;42463;52.214;21.238;2023-04-25T08:58:38;99188.98;;;14.58;59.31
56582;BME280;42463;52.214;21.238;2023-04-25T09:00:41;99196.86;;;14.60;59.31
56582;BME280;42463;52.214;21.238;2023-04-25T09:02:45;99194.80;;;14.59;59.36
56582;BME280;42463;52.214;21.238;2023-04-25T09:04:50;99197.09;;;14.57;59.29
56582;BME280;42463;52.214;21.238;2023-04-25T09:06:53;99198.20;;;14.55;59.07
56582;BME280;42463;52.214;21.238;2023-04-25T09:09:02;99196.74;;;14.52;58.61
56582;BME280;42463;52.214;21.238;2023-04-25T09:11:07;99201.09;;;14.49;58.34
56582;BME280;42463;52.214;21.238;2023-04-25T09:13:12;99204.88;;;14.45;58.27
56582;BME280;42463;52.214;21.238;2023-04-25T09:15:48;99203.70;;;14.41;58.01
56582;BME280;42463;52.214;21.238;2023-04-25T09:18:08;99212.09;;;14.36;58.20
56582;BME280;42463;52.214;21.238;2023-04-25T09:20:17;99210.08;;;14.34;58.13
56582;BME280;42463;52.214;21.238;2023-04-25T09:22:21;99217.27;;;14.32;58.22
56582;BME280;42463;52.214;21.238;2023-04-25T09:24:32;99222.42;;;14.31;58.16
56582;BME280;42463;52.214;21.238;2023-04-25T09:26:36;99228.31;;;14.26;58.01
56582;BME280;42463;52.214;21.238;2023-04-25T09:28:40;99231.34;;;14.20;58.21
56582;BME280;42463;52.214;21.238;2023-04-25T09:30:46;99234.02;;;14.15;58.68
56582;BME280;42463;52.214;21.238;2023-04-25T09:33:05;99236.47;;;14.13;59.14
56582;BME280;42463;52.214;21.238;2023-04-25T09:35:09;99239.60;;;14.12;59.36
56582;BME280;42463;52.214;21.238;2023-04-25T09:37:17;99237.00;;;14.12;59.10
56582;BME280;42463;52.214;21.238;2023-04-25T09:39:40;99236.70;;;14.13;58.84
56582;BME280;42463;52.214;21.238;2023-04-25T09:41:48;99240.11;;;14.14;58.77
56582;BME280;42463;52.214;21.238;2023-04-25T09:43:57;99239.43;;;14.15;58.93
56582;BME280;42463;52.214;21.238;2023-04-25T09:46:02;99245.27;;;14.15;59.01
56582;BME280;42463;52.214;21.238;2023-04-25T09:48:06;99245.07;;;14.16;59.10
56582;BME280;42463;52.214;21.238;2023-04-25T09:50:15;99241.65;;;14.21;58.90
56582;BME280;42463;52.214;21.238;2023-04-25T09:52:20;99238.36;;;14.24;58.83
56582;BME280;42463;52.214;21.238;2023-04-25T09:54:31;99237.89;;;14.25;59.06
56582;BME280;42463;52.214;21.238;2023-04-25T09:56:41;99232.74;;;14.26;58.88
56582;BME280;42463;52.214;21.238;2023-04-25T09:58:47;99229.01;;;14.25;58.81
56582;BME280;42463;52.214;21.238;2023-04-25T10:00:53;99229.29;;;14.27;58.98
56582;BME280;42463;52.214;21.238;2023-04-25T10:03:02;99235.40;;;14.29;59.18
56582;BME280;42463;52.214;21.238;2023-04-25T10:05:22;99238.04;;;14.30;59.40
56582;BME280;42463;52.214;21.238;2023-04-25T10:07:30;99243.89;;;14.30;59.79
56582;BME280;42463;52.214;21.238;2023-04-25T10:09:37;99250.37;;;14.31;60.47
56582;BME280;42463;52.214;21.238;2023-04-25T10:11:41;99251.30;;;14.31;60.33
56582;BME280;42463;52.214;21.238;2023-04-25T10:13:46;99255.61;;;14.28;60.67
56582;BME280;42463;52.214;21.238;2023-04-25T10:15:50;99256.40;;;14.27;61.07
56582;BME280;42463;52.214;21.238;2023-04-25T10:17:55;99259.41;;;14.27;60.86
56582;BME280;42463;52.214;21.238;2023-04-25T10:20:00;99260.45;;;14.24;60.70
56582;BME280;42463;52.214;21.238;2023-04-25T10:22:07;99259.29;;;14.23;60.87
56582;BME280;42463;52.214;21.238;2023-04-25T10:24:10;99260.03;;;14.21;60.84
56582;BME280;42463;52.214;21.238;2023-04-25T10:26:13;99266.55;;;14.17;60.90
56582;BME280;42463;52.214;21.238;2023-04-25T10:28:16;99265.08;;;14.15;61.34
56582;BME280;42463;52.214;21.238;2023-04-25T10:30:19;99265.56;;;14.15;61.64
56582;BME280;42463;52.214;21.238;2023-04-25T10:32:21;99266.46;;;14.16;61.49
56582;BME280;42463;52.214;21.238;2023-04-25T10:34:37;99267.02;;;14.15;61.13
56582;BME280;42463;52.214;21.238;2023-04-25T10:36:41;99265.83;;;14.13;61.19
56582;BME280;42463;52.214;21.238;2023-04-25T10:38:45;99262.29;;;14.12;61.14
56582;BME280;42463;52.214;21.238;2023-04-25T10:41:03;99261.59;;;14.12;61.40
56582;BME280;42463;52.214;21.238;2023-04-25T10:43:33;99261.02;;;14.13;61.51
56582;BME280;42463;52.214;21.238;2023-04-25T10:45:51;99262.64;;;14.11;61.82
56582;BME280;42463;52.214;21.238;2023-04-25T10:47:54;99261.23;;;14.10;61.65
56582;BME280;42463;52.214;21.238;2023-04-25T10:50:05;99263.45;;;14.09;61.49
56582;BME280;42463;52.214;21.238;2023-04-25T10:52:25;99262.82;;;14.08;61.82
56582;BME280;42463;52.214;21.238;2023-04-25T10:54:29;99259.94;;;14.08;61.90
56582;BME280;42463;52.214;21.238;2023-04-25T10:56:36;99258.70;;;14.06;61.43
56582;BME280;42463;52.214;21.238;2023-04-25T10:58:45;99255.38;;;14.04;61.53
56582;BME280;42463;52.214;21.238;2023-04-25T11:00:50;99253.88;;;14.05;61.48
56582;BME280;42463;52.214;21.238;2023-04-25T11:02:58;99255.13;;;14.05;61.58
56582;BME280;42463;52.214;21.238;2023-04-25T11:05:01;99257.43;;;14.04;61.52
56582;BME280;42463;52.214;21.238;2023-04-25T11:07:10;99257.40;;;14.01;61.08